sensor_id;sensor_type;location;lat;lon;timestamp;P1;durP1;ratioP1;P2;durP2;ratioP2
11143;SDS011;5626;44.730;10.276;2022-09-09T00:02:06;2.58;;;1.85;;
11143;SDS011;5626;44.730;10.276;2022-09-09T00:04:43;2.03;;;1.83;;
11143;SDS011;5626;44.730;10.276;2022-09-09T00:07:18;3.58;;;1.90;;
11143;SDS011;5626;44.730;10.276;2022-09-09T00:09:53;2.42;;;1.80;;
11143;SDS011;5626;44.730;10.276;2022-09-09T00:12:34;2.60;;;1.70;;
11143;SDS011;5626;44.730;10.276;2022-09-09T00:15:11;3.70;;;2.00;;
11143;SDS011;5626;44.730;10.276;2022-09-09T00:17:46;3.47;;;2.10;;
11143;SDS011;5626;44.730;10.276;2022-09-09T00:20:20;2.35;;;1.95;;
11143;SDS011;5626;44.730;10.276;2022-09-09T00:23:03;3.35;;;1.90;;
11143;SDS011;5626;44.730;10.276;2022-09-09T00:25:40;3.72;;;2.20;;
11143;SDS011;5626;44.730;10.276;2022-09-09T00:28:18;3.75;;;2.13;;
11143;SDS011;5626;44.730;10.276;2022-09-09T00:30:48;2.53;;;1.92;;
11143;SDS011;5626;44.730;10.276;2022-09-09T00:33:20;4.93;;;2.03;;
11143;SDS011;5626;44.730;10.276;2022-09-09T00:35:53;3.67;;;2.00;;
11143;SDS011;5626;44.730;10.276;2022-09-09T00:38:28;3.15;;;2.13;;
11143;SDS011;5626;44.730;10.276;2022-09-09T00:41:04;4.78;;;2.10;;
11143;SDS011;5626;44.730;10.276;2022-09-09T00:43:40;2.15;;;1.70;;
11143;SDS011;5626;44.730;10.276;2022-09-09T00:49:15;6.32;;;2.20;;
11143;SDS011;5626;44.730;10.276;2022-09-09T00:51:58;3.03;;;2.10;;
11143;SDS011;5626;44.730;10.276;2022-09-09T00:54:35;2.67;;;1.90;;
11143;SDS011;5626;44.730;10.276;2022-09-09T00:57:13;4.05;;;2.00;;
11143;SDS011;5626;44.730;10.276;2022-09-09T00:59:52;3.97;;;2.10;;
11143;SDS011;5626;44.730;10.276;2022-09-09T01:02:27;3.15;;;2.20;;
11143;SDS011;5626;44.730;10.276;2022-09-09T01:05:01;2.53;;;2.28;;
11143;SDS011;5626;44.730;10.276;2022-09-09T01:07:36;1.98;;;1.60;;
11143;SDS011;5626;44.730;10.276;2022-09-09T01:10:06;2.58;;;1.80;;
11143;SDS011;5626;44.730;10.276;2022-09-09T01:12:45;2.50;;;2.00;;
11143;SDS011;5626;44.730;10.276;2022-09-09T01:15:22;2.35;;;1.85;;
11143;SDS011;5626;44.730;10.276;2022-09-09T01:17:58;2.88;;;1.77;;
11143;SDS011;5626;44.730;10.276;2022-09-09T01:20:39;3.42;;;1.80;;
11143;SDS011;5626;44.730;10.276;2022-09-09T01:26:26;3.25;;;1.98;;
11143;SDS011;5626;44.730;10.276;2022-09-09T01:29:01;3.05;;;1.60;;
11143;SDS011;5626;44.730;10.276;2022-09-09T01:31:36;4.03;;;1.88;;
11143;SDS011;5626;44.730;10.276;2022-09-09T01:34:09;3.97;;;1.77;;
11143;SDS011;5626;44.730;10.276;2022-09-09T01:36:42;2.97;;;1.55;;
11143;SDS011;5626;44.730;10.276;2022-09-09T01:39:18;2.08;;;1.60;;
11143;SDS011;5626;44.730;10.276;2022-09-09T01:41:58;3.63;;;1.50;;
11143;SDS011;5626;44.730;10.276;2022-09-09T01:44:28;3.80;;;1.92;;
11143;SDS011;5626;44.730;10.276;2022-09-09T01:47:00;3.08;;;1.80;;
11143;SDS011;5626;44.730;10.276;2022-09-09T01:49:30;1.75;;;1.50;;
11143;SDS011;5626;44.730;10.276;2022-09-09T01:52:08;3.70;;;1.40;;
11143;SDS011;5626;44.730;10.276;2022-09-09T01:54:38;2.08;;;1.60;;
11143;SDS011;5626;44.730;10.276;2022-09-09T01:57:18;3.03;;;1.50;;
11143;SDS011;5626;44.730;10.276;2022-09-09T01:59:56;2.20;;;1.70;;
11143;SDS011;5626;44.730;10.276;2022-09-09T02:02:43;4.45;;;1.58;;
11143;SDS011;5626;44.730;10.276;2022-09-09T02:05:25;2.08;;;1.70;;
11143;SDS011;5626;44.730;10.276;2022-09-09T02:08:05;3.00;;;1.60;;
11143;SDS011;5626;44.730;10.276;2022-09-09T02:10:48;2.17;;;1.50;;
11143;SDS011;5626;44.730;10.276;2022-09-09T02:13:37;2.25;;;1.65;;
11143;SDS011;5626;44.730;10.276;2022-09-09T02:16:13;2.28;;;1.67;;
11143;SDS011;5626;44.730;10.276;2022-09-09T02:18:48;4.80;;;1.67;;
11143;SDS011;5626;44.730;10.276;2022-09-09T02:21:35;2.05;;;1.73;;
11143;SDS011;5626;44.730;10.276;2022-09-09T02:24:05;3.97;;;2.03;;
11143;SDS011;5626;44.730;10.276;2022-09-09T02:26:44;2.38;;;1.77;;
11143;SDS011;5626;44.730;10.276;2022-09-09T02:29:19;5.13;;;2.03;;
11143;SDS011;5626;44.730;10.276;2022-09-09T02:31:53;4.72;;;1.60;;
11143;SDS011;5626;44.730;10.276;2022-09-09T02:34:31;3.17;;;1.70;;
11143;SDS011;5626;44.730;10.276;2022-09-09T02:37:05;4.18;;;1.90;;
11143;SDS011;5626;44.730;10.276;2022-09-09T02:39:37;2.17;;;1.70;;
11143;SDS011;5626;44.730;10.276;2022-09-09T02:42:10;3.22;;;2.08;;
11143;SDS011;5626;44.730;10.276;2022-09-09T02:44:44;4.32;;;2.08;;
11143;SDS011;5626;44.730;10.276;2022-09-09T02:47:21;2.78;;;2.08;;
11143;SDS011;5626;44.730;10.276;2022-09-09T02:50:05;4.10;;;2.10;;
11143;SDS011;5626;44.730;10.276;2022-09-09T02:52:45;4.10;;;2.30;;
11143;SDS011;5626;44.730;10.276;2022-09-09T02:55:24;3.83;;;2.30;;
11143;SDS011;5626;44.730;10.276;2022-09-09T02:58:07;2.58;;;2.05;;
11143;SDS011;5626;44.730;10.276;2022-09-09T03:00:41;2.88;;;1.90;;
11143;SDS011;5626;44.730;10.276;2022-09-09T03:03:12;2.75;;;1.85;;
11143;SDS011;5626;44.730;10.276;2022-09-09T03:05:44;2.75;;;1.55;;
11143;SDS011;5626;44.730;10.276;2022-09-09T03:08:14;4.40;;;1.88;;
11143;SDS011;5626;44.730;10.276;2022-09-09T03:10:45;1.88;;;1.60;;
11143;SDS011;5626;44.730;10.276;2022-09-09T03:13:15;3.35;;;2.00;;
11143;SDS011;5626;44.730;10.276;2022-09-09T03:15:48;4.47;;;2.15;;
11143;SDS011;5626;44.730;10.276;2022-09-09T03:18:20;2.78;;;2.00;;
11143;SDS011;5626;44.730;10.276;2022-09-09T03:20:53;3.88;;;2.00;;
11143;SDS011;5626;44.730;10.276;2022-09-09T03:23:22;3.72;;;1.80;;
11143;SDS011;5626;44.730;10.276;2022-09-09T03:25:52;3.33;;;2.22;;
11143;SDS011;5626;44.730;10.276;2022-09-09T03:28:31;2.85;;;2.10;;
11143;SDS011;5626;44.730;10.276;2022-09-09T03:31:04;5.05;;;2.17;;
11143;SDS011;5626;44.730;10.276;2022-09-09T03:33:40;3.63;;;2.10;;
11143;SDS011;5626;44.730;10.276;2022-09-09T03:36:12;3.47;;;2.20;;
11143;SDS011;5626;44.730;10.276;2022-09-09T03:38:42;3.17;;;1.90;;
11143;SDS011;5626;44.730;10.276;2022-09-09T03:41:12;2.13;;;1.92;;
11143;SDS011;5626;44.730;10.276;2022-09-09T03:43:42;5.32;;;2.30;;
11143;SDS011;5626;44.730;10.276;2022-09-09T03:46:13;2.13;;;1.80;;
11143;SDS011;5626;44.730;10.276;2022-09-09T03:48:43;3.60;;;1.83;;
11143;SDS011;5626;44.730;10.276;2022-09-09T03:51:13;2.28;;;1.60;;
11143;SDS011;5626;44.730;10.276;2022-09-09T03:53:43;2.30;;;1.80;;
11143;SDS011;5626;44.730;10.276;2022-09-09T03:56:13;3.47;;;1.90;;
11143;SDS011;5626;44.730;10.276;2022-09-09T03:58:43;2.30;;;1.70;;
11143;SDS011;5626;44.730;10.276;2022-09-09T04:01:14;2.08;;;1.75;;
11143;SDS011;5626;44.730;10.276;2022-09-09T04:03:46;3.13;;;2.10;;
11143;SDS011;5626;44.730;10.276;2022-09-09T04:06:15;3.42;;;1.90;;
11143;SDS011;5626;44.730;10.276;2022-09-09T04:08:47;2.17;;;1.80;;
11143;SDS011;5626;44.730;10.276;2022-09-09T04:11:19;2.22;;;1.70;;
11143;SDS011;5626;44.730;10.276;2022-09-09T04:13:51;2.33;;;1.90;;
11143;SDS011;5626;44.730;10.276;2022-09-09T04:16:22;3.65;;;2.17;;
11143;SDS011;5626;44.730;10.276;2022-09-09T04:18:51;3.92;;;1.90;;
11143;SDS011;5626;44.730;10.276;2022-09-09T04:21:21;3.50;;;2.30;;
11143;SDS011;5626;44.730;10.276;2022-09-09T04:23:51;4.40;;;2.50;;
11143;SDS011;5626;44.730;10.276;2022-09-09T04:26:21;2.72;;;1.98;;
11143;SDS011;5626;44.730;10.276;2022-09-09T04:28:52;3.78;;;1.95;;
11143;SDS011;5626;44.730;10.276;2022-09-09T04:31:24;3.72;;;2.10;;
11143;SDS011;5626;44.730;10.276;2022-09-09T04:33:56;5.30;;;2.08;;
11143;SDS011;5626;44.730;10.276;2022-09-09T04:36:26;5.18;;;2.30;;
11143;SDS011;5626;44.730;10.276;2022-09-09T04:39:00;2.95;;;1.90;;
11143;SDS011;5626;44.730;10.276;2022-09-09T04:41:29;6.22;;;2.13;;
11143;SDS011;5626;44.730;10.276;2022-09-09T04:44:00;2.65;;;2.20;;
11143;SDS011;5626;44.730;10.276;2022-09-09T04:46:34;3.03;;;2.08;;
11143;SDS011;5626;44.730;10.276;2022-09-09T04:49:04;3.90;;;2.42;;
11143;SDS011;5626;44.730;10.276;2022-09-09T04:51:34;4.22;;;2.33;;
11143;SDS011;5626;44.730;10.276;2022-09-09T04:54:04;5.88;;;2.67;;
11143;SDS011;5626;44.730;10.276;2022-09-09T04:56:36;5.35;;;2.97;;
11143;SDS011;5626;44.730;10.276;2022-09-09T04:59:05;4.78;;;2.42;;
11143;SDS011;5626;44.730;10.276;2022-09-09T05:01:43;6.10;;;3.28;;
11143;SDS011;5626;44.730;10.276;2022-09-09T05:04:13;12.07;;;4.05;;
11143;SDS011;5626;44.730;10.276;2022-09-09T05:06:43;6.05;;;3.35;;
11143;SDS011;5626;44.730;10.276;2022-09-09T05:09:13;4.70;;;2.70;;
11143;SDS011;5626;44.730;10.276;2022-09-09T05:11:44;5.10;;;3.20;;
11143;SDS011;5626;44.730;10.276;2022-09-09T05:14:24;5.25;;;3.53;;
11143;SDS011;5626;44.730;10.276;2022-09-09T05:16:55;7.38;;;3.70;;
11143;SDS011;5626;44.730;10.276;2022-09-09T05:19:25;7.82;;;3.00;;
11143;SDS011;5626;44.730;10.276;2022-09-09T05:21:55;5.45;;;2.83;;
11143;SDS011;5626;44.730;10.276;2022-09-09T05:24:32;5.55;;;2.88;;
11143;SDS011;5626;44.730;10.276;2022-09-09T05:27:03;37.22;;;5.95;;
11143;SDS011;5626;44.730;10.276;2022-09-09T05:29:33;15.00;;;4.20;;
11143;SDS011;5626;44.730;10.276;2022-09-09T05:32:06;6.63;;;2.92;;
11143;SDS011;5626;44.730;10.276;2022-09-09T05:34:39;10.25;;;3.50;;
11143;SDS011;5626;44.730;10.276;2022-09-09T05:37:09;8.48;;;2.90;;
11143;SDS011;5626;44.730;10.276;2022-09-09T05:39:39;8.10;;;2.70;;
11143;SDS011;5626;44.730;10.276;2022-09-09T05:42:10;13.88;;;3.25;;
11143;SDS011;5626;44.730;10.276;2022-09-09T05:44:39;9.52;;;3.30;;
11143;SDS011;5626;44.730;10.276;2022-09-09T05:47:14;9.18;;;2.72;;
11143;SDS011;5626;44.730;10.276;2022-09-09T05:49:44;7.15;;;3.15;;
11143;SDS011;5626;44.730;10.276;2022-09-09T05:52:13;8.00;;;3.35;;
11143;SDS011;5626;44.730;10.276;2022-09-09T05:54:43;11.45;;;3.28;;
11143;SDS011;5626;44.730;10.276;2022-09-09T05:57:13;8.60;;;2.47;;
11143;SDS011;5626;44.730;10.276;2022-09-09T05:59:43;7.13;;;2.72;;
11143;SDS011;5626;44.730;10.276;2022-09-09T06:02:15;8.18;;;2.30;;
11143;SDS011;5626;44.730;10.276;2022-09-09T06:04:44;8.70;;;2.25;;
11143;SDS011;5626;44.730;10.276;2022-09-09T06:07:14;6.47;;;2.60;;
11143;SDS011;5626;44.730;10.276;2022-09-09T06:09:44;8.32;;;2.78;;
11143;SDS011;5626;44.730;10.276;2022-09-09T06:12:13;10.10;;;2.90;;
11143;SDS011;5626;44.730;10.276;2022-09-09T06:14:43;10.55;;;2.60;;
11143;SDS011;5626;44.730;10.276;2022-09-09T06:17:16;8.43;;;2.70;;
11143;SDS011;5626;44.730;10.276;2022-09-09T06:19:45;8.45;;;2.80;;
11143;SDS011;5626;44.730;10.276;2022-09-09T06:22:15;8.68;;;3.00;;
11143;SDS011;5626;44.730;10.276;2022-09-09T06:24:45;7.20;;;2.72;;
11143;SDS011;5626;44.730;10.276;2022-09-09T06:27:16;10.68;;;3.10;;
11143;SDS011;5626;44.730;10.276;2022-09-09T06:29:47;12.57;;;3.10;;
11143;SDS011;5626;44.730;10.276;2022-09-09T06:32:18;12.93;;;2.88;;
11143;SDS011;5626;44.730;10.276;2022-09-09T06:34:49;27.33;;;4.65;;
11143;SDS011;5626;44.730;10.276;2022-09-09T06:37:19;33.05;;;4.88;;
11143;SDS011;5626;44.730;10.276;2022-09-09T06:39:51;30.48;;;4.75;;
11143;SDS011;5626;44.730;10.276;2022-09-09T06:42:22;57.10;;;6.13;;
11143;SDS011;5626;44.730;10.276;2022-09-09T06:45:03;39.47;;;4.97;;
11143;SDS011;5626;44.730;10.276;2022-09-09T06:47:43;7.55;;;2.45;;
11143;SDS011;5626;44.730;10.276;2022-09-09T06:50:14;8.93;;;2.75;;
11143;SDS011;5626;44.730;10.276;2022-09-09T06:52:45;5.38;;;2.47;;
11143;SDS011;5626;44.730;10.276;2022-09-09T06:55:16;5.25;;;2.67;;
11143;SDS011;5626;44.730;10.276;2022-09-09T06:57:46;3.78;;;2.83;;
11143;SDS011;5626;44.730;10.276;2022-09-09T07:00:22;4.60;;;2.50;;
11143;SDS011;5626;44.730;10.276;2022-09-09T07:02:53;4.53;;;2.95;;
11143;SDS011;5626;44.730;10.276;2022-09-09T07:05:23;7.38;;;2.70;;
11143;SDS011;5626;44.730;10.276;2022-09-09T07:07:53;3.50;;;2.78;;
11143;SDS011;5626;44.730;10.276;2022-09-09T07:10:24;5.38;;;2.72;;
11143;SDS011;5626;44.730;10.276;2022-09-09T07:12:54;6.57;;;2.88;;
11143;SDS011;5626;44.730;10.276;2022-09-09T07:15:25;4.57;;;2.78;;
11143;SDS011;5626;44.730;10.276;2022-09-09T07:17:56;5.13;;;2.45;;
11143;SDS011;5626;44.730;10.276;2022-09-09T07:20:31;4.50;;;2.83;;
11143;SDS011;5626;44.730;10.276;2022-09-09T07:23:01;6.07;;;2.63;;
11143;SDS011;5626;44.730;10.276;2022-09-09T07:25:31;4.32;;;2.40;;
11143;SDS011;5626;44.730;10.276;2022-09-09T07:28:00;6.50;;;2.53;;
11143;SDS011;5626;44.730;10.276;2022-09-09T07:30:30;4.95;;;2.40;;
11143;SDS011;5626;44.730;10.276;2022-09-09T07:33:01;5.53;;;2.90;;
11143;SDS011;5626;44.730;10.276;2022-09-09T07:35:31;5.15;;;2.67;;
11143;SDS011;5626;44.730;10.276;2022-09-09T07:38:01;6.70;;;3.10;;
11143;SDS011;5626;44.730;10.276;2022-09-09T07:40:32;5.63;;;2.80;;
11143;SDS011;5626;44.730;10.276;2022-09-09T07:43:01;5.53;;;3.70;;
11143;SDS011;5626;44.730;10.276;2022-09-09T07:45:31;7.03;;;3.30;;
11143;SDS011;5626;44.730;10.276;2022-09-09T07:48:04;6.15;;;3.33;;
11143;SDS011;5626;44.730;10.276;2022-09-09T07:50:34;6.72;;;3.53;;
11143;SDS011;5626;44.730;10.276;2022-09-09T07:53:04;5.25;;;3.03;;
11143;SDS011;5626;44.730;10.276;2022-09-09T07:55:34;8.07;;;4.32;;
11143;SDS011;5626;44.730;10.276;2022-09-09T07:58:04;9.30;;;4.43;;
11143;SDS011;5626;44.730;10.276;2022-09-09T08:00:33;7.97;;;4.68;;
11143;SDS011;5626;44.730;10.276;2022-09-09T08:03:05;6.88;;;4.20;;
11143;SDS011;5626;44.730;10.276;2022-09-09T08:05:34;5.47;;;3.83;;
11143;SDS011;5626;44.730;10.276;2022-09-09T08:08:07;5.80;;;5.20;;
11143;SDS011;5626;44.730;10.276;2022-09-09T08:10:36;8.40;;;5.47;;
11143;SDS011;5626;44.730;10.276;2022-09-09T08:13:06;7.43;;;6.00;;
11143;SDS011;5626;44.730;10.276;2022-09-09T08:15:45;6.93;;;4.78;;
11143;SDS011;5626;44.730;10.276;2022-09-09T08:18:17;8.85;;;5.85;;
11143;SDS011;5626;44.730;10.276;2022-09-09T08:20:47;7.20;;;5.45;;
11143;SDS011;5626;44.730;10.276;2022-09-09T08:23:16;12.50;;;8.63;;
11143;SDS011;5626;44.730;10.276;2022-09-09T08:25:46;10.48;;;6.75;;
11143;SDS011;5626;44.730;10.276;2022-09-09T08:28:16;8.25;;;6.22;;
11143;SDS011;5626;44.730;10.276;2022-09-09T08:30:46;11.85;;;7.90;;
11143;SDS011;5626;44.730;10.276;2022-09-09T08:33:18;13.25;;;8.60;;
11143;SDS011;5626;44.730;10.276;2022-09-09T08:35:49;8.93;;;6.28;;
11143;SDS011;5626;44.730;10.276;2022-09-09T08:38:20;11.50;;;8.07;;
11143;SDS011;5626;44.730;10.276;2022-09-09T08:40:50;11.88;;;8.05;;
11143;SDS011;5626;44.730;10.276;2022-09-09T08:43:27;12.35;;;10.15;;
11143;SDS011;5626;44.730;10.276;2022-09-09T08:45:59;14.23;;;10.50;;
11143;SDS011;5626;44.730;10.276;2022-09-09T08:48:44;12.15;;;9.25;;
11143;SDS011;5626;44.730;10.276;2022-09-09T08:51:21;14.82;;;11.63;;
11143;SDS011;5626;44.730;10.276;2022-09-09T08:53:53;14.18;;;10.60;;
11143;SDS011;5626;44.730;10.276;2022-09-09T08:56:26;12.88;;;9.32;;
11143;SDS011;5626;44.730;10.276;2022-09-09T08:59:00;15.35;;;11.50;;
11143;SDS011;5626;44.730;10.276;2022-09-09T09:01:47;17.20;;;12.73;;
11143;SDS011;5626;44.730;10.276;2022-09-09T09:04:40;12.32;;;10.85;;
11143;SDS011;5626;44.730;10.276;2022-09-09T09:07:26;23.08;;;13.73;;
11143;SDS011;5626;44.730;10.276;2022-09-09T09:10:09;12.52;;;8.73;;
11143;SDS011;5626;44.730;10.276;2022-09-09T09:12:58;12.82;;;10.00;;
11143;SDS011;5626;44.730;10.276;2022-09-09T09:15:32;11.23;;;8.60;;
11143;SDS011;5626;44.730;10.276;2022-09-09T09:18:07;13.35;;;10.43;;
11143;SDS011;5626;44.730;10.276;2022-09-09T09:20:45;12.13;;;10.27;;
11143;SDS011;5626;44.730;10.276;2022-09-09T09:23:21;13.82;;;9.65;;
11143;SDS011;5626;44.730;10.276;2022-09-09T09:25:58;9.07;;;7.80;;
11143;SDS011;5626;44.730;10.276;2022-09-09T09:28:30;17.92;;;13.32;;
11143;SDS011;5626;44.730;10.276;2022-09-09T09:31:09;10.45;;;9.45;;
11143;SDS011;5626;44.730;10.276;2022-09-09T09:33:45;8.45;;;7.60;;
11143;SDS011;5626;44.730;10.276;2022-09-09T09:36:21;12.00;;;10.80;;
11143;SDS011;5626;44.730;10.276;2022-09-09T09:38:55;18.33;;;12.43;;
11143;SDS011;5626;44.730;10.276;2022-09-09T09:41:48;11.52;;;9.10;;
11143;SDS011;5626;44.730;10.276;2022-09-09T09:44:24;16.17;;;12.15;;
11143;SDS011;5626;44.730;10.276;2022-09-09T09:47:06;15.43;;;13.82;;
11143;SDS011;5626;44.730;10.276;2022-09-09T09:49:39;12.35;;;11.10;;
11143;SDS011;5626;44.730;10.276;2022-09-09T09:52:22;12.07;;;9.32;;
11143;SDS011;5626;44.730;10.276;2022-09-09T09:54:54;23.02;;;12.68;;
11143;SDS011;5626;44.730;10.276;2022-09-09T09:57:28;27.92;;;15.48;;
11143;SDS011;5626;44.730;10.276;2022-09-09T10:00:12;18.20;;;12.82;;
11143;SDS011;5626;44.730;10.276;2022-09-09T10:02:50;12.77;;;11.10;;
11143;SDS011;5626;44.730;10.276;2022-09-09T10:05:27;17.50;;;12.45;;
11143;SDS011;5626;44.730;10.276;2022-09-09T10:08:09;9.80;;;8.80;;
11143;SDS011;5626;44.730;10.276;2022-09-09T10:10:52;17.38;;;12.55;;
11143;SDS011;5626;44.730;10.276;2022-09-09T10:13:35;15.48;;;11.93;;
11143;SDS011;5626;44.730;10.276;2022-09-09T10:16:18;16.33;;;11.48;;
11143;SDS011;5626;44.730;10.276;2022-09-09T10:18:58;16.63;;;13.50;;
11143;SDS011;5626;44.730;10.276;2022-09-09T10:21:32;14.50;;;11.23;;
11143;SDS011;5626;44.730;10.276;2022-09-09T10:24:33;14.77;;;10.50;;
11143;SDS011;5626;44.730;10.276;2022-09-09T10:27:22;18.95;;;12.38;;
11143;SDS011;5626;44.730;10.276;2022-09-09T10:30:00;14.05;;;11.18;;
11143;SDS011;5626;44.730;10.276;2022-09-09T10:32:37;15.00;;;10.70;;
11143;SDS011;5626;44.730;10.276;2022-09-09T10:38:13;15.18;;;11.68;;
11143;SDS011;5626;44.730;10.276;2022-09-09T10:40:49;15.05;;;12.88;;
11143;SDS011;5626;44.730;10.276;2022-09-09T10:43:40;18.20;;;13.45;;
11143;SDS011;5626;44.730;10.276;2022-09-09T10:46:43;16.77;;;13.75;;
11143;SDS011;5626;44.730;10.276;2022-09-09T10:49:24;11.68;;;10.43;;
11143;SDS011;5626;44.730;10.276;2022-09-09T10:52:08;12.43;;;11.23;;
11143;SDS011;5626;44.730;10.276;2022-09-09T10:54:48;12.35;;;11.05;;
11143;SDS011;5626;44.730;10.276;2022-09-09T10:57:28;16.80;;;12.40;;
11143;SDS011;5626;44.730;10.276;2022-09-09T11:00:03;12.52;;;9.75;;
11143;SDS011;5626;44.730;10.276;2022-09-09T11:02:35;12.88;;;10.55;;
11143;SDS011;5626;44.730;10.276;2022-09-09T11:05:08;12.45;;;9.35;;
11143;SDS011;5626;44.730;10.276;2022-09-09T11:07:47;11.48;;;8.57;;
11143;SDS011;5626;44.730;10.276;2022-09-09T11:10:23;10.93;;;9.38;;
11143;SDS011;5626;44.730;10.276;2022-09-09T11:13:01;9.98;;;7.30;;
11143;SDS011;5626;44.730;10.276;2022-09-09T11:15:35;12.05;;;9.57;;
11143;SDS011;5626;44.730;10.276;2022-09-09T11:18:11;13.77;;;10.48;;
11143;SDS011;5626;44.730;10.276;2022-09-09T11:20:45;9.77;;;8.25;;
11143;SDS011;5626;44.730;10.276;2022-09-09T11:23:19;10.10;;;7.80;;
11143;SDS011;5626;44.730;10.276;2022-09-09T11:25:54;10.40;;;6.78;;
11143;SDS011;5626;44.730;10.276;2022-09-09T11:28:39;9.02;;;7.22;;
11143;SDS011;5626;44.730;10.276;2022-09-09T11:31:33;8.23;;;6.60;;
11143;SDS011;5626;44.730;10.276;2022-09-09T11:34:17;8.93;;;7.35;;
11143;SDS011;5626;44.730;10.276;2022-09-09T11:36:58;10.15;;;7.40;;
11143;SDS011;5626;44.730;10.276;2022-09-09T11:39:46;9.20;;;7.82;;
11143;SDS011;5626;44.730;10.276;2022-09-09T11:42:32;9.13;;;7.32;;
11143;SDS011;5626;44.730;10.276;2022-09-09T11:45:10;7.88;;;6.25;;
11143;SDS011;5626;44.730;10.276;2022-09-09T11:47:54;7.75;;;6.30;;
11143;SDS011;5626;44.730;10.276;2022-09-09T11:50:32;6.32;;;5.72;;
11143;SDS011;5626;44.730;10.276;2022-09-09T11:53:20;6.93;;;5.63;;
11143;SDS011;5626;44.730;10.276;2022-09-09T11:56:00;7.07;;;6.00;;
11143;SDS011;5626;44.730;10.276;2022-09-09T11:58:36;7.00;;;6.30;;
11143;SDS011;5626;44.730;10.276;2022-09-09T12:01:28;6.63;;;5.88;;
11143;SDS011;5626;44.730;10.276;2022-09-09T12:04:16;6.43;;;5.55;;
11143;SDS011;5626;44.730;10.276;2022-09-09T12:06:57;7.20;;;6.32;;
11143;SDS011;5626;44.730;10.276;2022-09-09T12:09:32;5.55;;;5.05;;
11143;SDS011;5626;44.730;10.276;2022-09-09T12:15:17;5.47;;;4.97;;
11143;SDS011;5626;44.730;10.276;2022-09-09T12:17:58;9.25;;;5.55;;
11143;SDS011;5626;44.730;10.276;2022-09-09T12:20:33;6.97;;;5.05;;
11143;SDS011;5626;44.730;10.276;2022-09-09T12:23:12;10.05;;;5.97;;
11143;SDS011;5626;44.730;10.276;2022-09-09T12:26:01;8.55;;;5.40;;
11143;SDS011;5626;44.730;10.276;2022-09-09T12:28:49;6.10;;;4.93;;
11143;SDS011;5626;44.730;10.276;2022-09-09T12:31:27;4.57;;;3.78;;
11143;SDS011;5626;44.730;10.276;2022-09-09T12:34:10;4.75;;;3.20;;
11143;SDS011;5626;44.730;10.276;2022-09-09T12:36:43;6.28;;;4.05;;
11143;SDS011;5626;44.730;10.276;2022-09-09T12:39:20;3.92;;;3.58;;
11143;SDS011;5626;44.730;10.276;2022-09-09T12:41:57;8.05;;;4.05;;
11143;SDS011;5626;44.730;10.276;2022-09-09T12:44:27;11.60;;;5.93;;
11143;SDS011;5626;44.730;10.276;2022-09-09T12:46:58;4.28;;;3.97;;
11143;SDS011;5626;44.730;10.276;2022-09-09T12:49:33;8.30;;;3.42;;
11143;SDS011;5626;44.730;10.276;2022-09-09T12:52:07;6.13;;;3.42;;
11143;SDS011;5626;44.730;10.276;2022-09-09T12:54:51;5.40;;;3.92;;
11143;SDS011;5626;44.730;10.276;2022-09-09T12:57:22;6.50;;;3.88;;
11143;SDS011;5626;44.730;10.276;2022-09-09T13:00:03;6.90;;;3.90;;
11143;SDS011;5626;44.730;10.276;2022-09-09T13:02:34;5.72;;;3.53;;
11143;SDS011;5626;44.730;10.276;2022-09-09T13:05:13;5.13;;;3.33;;
11143;SDS011;5626;44.730;10.276;2022-09-09T13:07:45;5.53;;;3.50;;
11143;SDS011;5626;44.730;10.276;2022-09-09T13:10:22;7.80;;;3.70;;
11143;SDS011;5626;44.730;10.276;2022-09-09T13:12:56;6.53;;;3.40;;
11143;SDS011;5626;44.730;10.276;2022-09-09T13:15:28;4.47;;;3.28;;
11143;SDS011;5626;44.730;10.276;2022-09-09T13:17:59;4.20;;;3.03;;
11143;SDS011;5626;44.730;10.276;2022-09-09T13:20:32;6.25;;;3.78;;
11143;SDS011;5626;44.730;10.276;2022-09-09T13:23:02;7.80;;;3.95;;
11143;SDS011;5626;44.730;10.276;2022-09-09T13:25:31;4.25;;;3.10;;
11143;SDS011;5626;44.730;10.276;2022-09-09T13:28:04;4.90;;;3.00;;
11143;SDS011;5626;44.730;10.276;2022-09-09T13:30:34;4.18;;;3.20;;
11143;SDS011;5626;44.730;10.276;2022-09-09T13:33:20;6.45;;;3.10;;
11143;SDS011;5626;44.730;10.276;2022-09-09T13:35:54;3.05;;;2.50;;
11143;SDS011;5626;44.730;10.276;2022-09-09T13:38:25;4.80;;;3.50;;
11143;SDS011;5626;44.730;10.276;2022-09-09T13:40:56;5.10;;;3.40;;
11143;SDS011;5626;44.730;10.276;2022-09-09T13:43:30;7.25;;;3.58;;
11143;SDS011;5626;44.730;10.276;2022-09-09T13:46:03;7.13;;;3.63;;
11143;SDS011;5626;44.730;10.276;2022-09-09T13:48:55;4.95;;;3.38;;
11143;SDS011;5626;44.730;10.276;2022-09-09T13:51:29;6.93;;;3.30;;
11143;SDS011;5626;44.730;10.276;2022-09-09T13:54:04;4.93;;;3.22;;
11143;SDS011;5626;44.730;10.276;2022-09-09T13:56:35;6.03;;;3.30;;
11143;SDS011;5626;44.730;10.276;2022-09-09T13:59:08;3.78;;;3.30;;
11143;SDS011;5626;44.730;10.276;2022-09-09T14:01:42;4.22;;;2.75;;
11143;SDS011;5626;44.730;10.276;2022-09-09T14:04:12;6.03;;;3.00;;
11143;SDS011;5626;44.730;10.276;2022-09-09T14:06:44;4.55;;;3.00;;
11143;SDS011;5626;44.730;10.276;2022-09-09T14:09:15;5.90;;;3.22;;
11143;SDS011;5626;44.730;10.276;2022-09-09T14:11:46;4.90;;;3.22;;
11143;SDS011;5626;44.730;10.276;2022-09-09T14:14:15;4.32;;;3.83;;
11143;SDS011;5626;44.730;10.276;2022-09-09T14:16:45;5.40;;;3.20;;
11143;SDS011;5626;44.730;10.276;2022-09-09T14:19:14;4.47;;;2.80;;
11143;SDS011;5626;44.730;10.276;2022-09-09T14:21:47;5.30;;;3.10;;
11143;SDS011;5626;44.730;10.276;2022-09-09T14:24:17;5.65;;;3.00;;
11143;SDS011;5626;44.730;10.276;2022-09-09T14:26:47;5.80;;;3.00;;
11143;SDS011;5626;44.730;10.276;2022-09-09T14:29:17;4.03;;;2.80;;
11143;SDS011;5626;44.730;10.276;2022-09-09T14:31:46;4.78;;;2.90;;
11143;SDS011;5626;44.730;10.276;2022-09-09T14:34:16;4.60;;;2.72;;
11143;SDS011;5626;44.730;10.276;2022-09-09T14:36:47;4.57;;;2.92;;
11143;SDS011;5626;44.730;10.276;2022-09-09T14:39:18;3.25;;;2.70;;
11143;SDS011;5626;44.730;10.276;2022-09-09T14:41:47;3.38;;;3.05;;
11143;SDS011;5626;44.730;10.276;2022-09-09T14:44:17;4.70;;;2.90;;
11143;SDS011;5626;44.730;10.276;2022-09-09T14:46:46;5.38;;;3.22;;
11143;SDS011;5626;44.730;10.276;2022-09-09T14:49:17;6.75;;;3.13;;
11143;SDS011;5626;44.730;10.276;2022-09-09T14:51:48;6.50;;;3.13;;
11143;SDS011;5626;44.730;10.276;2022-09-09T14:54:18;3.67;;;2.97;;
11143;SDS011;5626;44.730;10.276;2022-09-09T14:56:48;5.47;;;2.80;;
11143;SDS011;5626;44.730;10.276;2022-09-09T14:59:18;4.05;;;2.60;;
11143;SDS011;5626;44.730;10.276;2022-09-09T15:01:48;6.03;;;2.60;;
11143;SDS011;5626;44.730;10.276;2022-09-09T15:04:18;4.72;;;2.67;;
11143;SDS011;5626;44.730;10.276;2022-09-09T15:06:50;5.82;;;2.70;;
11143;SDS011;5626;44.730;10.276;2022-09-09T15:09:20;3.88;;;2.70;;
11143;SDS011;5626;44.730;10.276;2022-09-09T15:11:50;6.03;;;3.10;;
11143;SDS011;5626;44.730;10.276;2022-09-09T15:14:19;4.55;;;2.75;;
11143;SDS011;5626;44.730;10.276;2022-09-09T15:16:52;3.03;;;2.50;;
11143;SDS011;5626;44.730;10.276;2022-09-09T15:19:22;4.78;;;3.03;;
11143;SDS011;5626;44.730;10.276;2022-09-09T15:21:53;4.80;;;2.95;;
11143;SDS011;5626;44.730;10.276;2022-09-09T15:24:23;6.10;;;3.15;;
11143;SDS011;5626;44.730;10.276;2022-09-09T15:26:53;4.13;;;2.90;;
11143;SDS011;5626;44.730;10.276;2022-09-09T15:29:24;4.25;;;2.80;;
11143;SDS011;5626;44.730;10.276;2022-09-09T15:31:53;3.75;;;2.90;;
11143;SDS011;5626;44.730;10.276;2022-09-09T15:34:23;8.93;;;3.33;;
11143;SDS011;5626;44.730;10.276;2022-09-09T15:36:55;4.88;;;2.90;;
11143;SDS011;5626;44.730;10.276;2022-09-09T15:39:24;5.28;;;2.78;;